Etna Green, Indiana
Current Conditions -  °F | °C
As of 7:55 PM on Saturday 22 Nov 2014 (Local Time) from KASW Reporting Station
Overcast Overcast  
Wind Chill: 50°   Ceiling: 3100
Heat Index: 50°   Visibility: 10mi
Dew Point: 43°   Wind: 9mph
Humidity: 76%   Direction: 200°SSW
Pressure: 29.95"   Gusts: NA
Location:  41.28°N, 86.05°W
Report Text: KASW 230055Z AUTO 20008KT 167V227 10SM OVC031 10/06 A2995 RMK AO2
Loading
Personal Weather Stations






























Interactive Weather Map New forecast layout! Learn more

10-Day Weather Forecast

Advertisements
Track Severe Weather on mobile